Time;durP1;ratioP1;P1;durP2;ratioP2;P2;SDS_P1;SDS_P2;PMS_P1;PMS_P2;Temp;Humidity;BMP_temperature;BMP_pressure;BME280_temperature;BME280_humidity;BME280_pressure;Samples;Min_cycle;Max_cycle;Signal;HPM_P1;HPM_P2
2023/01/11 00:01:06;;;;;;;9.13;8.27;;;7.10;99.90;;;;;;6050292;23;20434;-75
2023/01/11 00:03:34;;;;;;;8.17;7.47;;;7.20;99.90;;;;;;6015303;23;20512;-74
2023/01/11 00:06:03;;;;;;;8.30;7.50;;;7.20;99.90;;;;;;6015348;23;20529;-76
2023/01/11 00:08:32;;;;;;;7.80;7.10;;;7.20;99.90;;;;;;6015321;23;20953;-75
2023/01/11 00:11:01;;;;;;;8.13;7.13;;;7.20;99.90;;;;;;6015315;23;20421;-75
2023/01/11 00:13:30;;;;;;;8.17;7.37;;;7.20;99.90;;;;;;6050020;23;20494;-75
2023/01/11 00:16:04;;;;;;;9.00;8.20;;;7.20;99.90;;;;;;6038859;23;20446;-76
2023/01/11 00:18:33;;;;;;;8.10;7.13;;;7.20;99.90;;;;;;6015027;23;20448;-75
2023/01/11 00:21:04;;;;;;;7.87;7.00;;;7.20;99.90;;;;;;6050201;23;20437;-76
2023/01/11 00:23:32;;;;;;;8.20;7.47;;;7.20;99.90;;;;;;6015291;23;20745;-76
2023/01/11 00:26:04;;;;;;;7.93;7.23;;;7.30;99.90;;;;;;6049761;23;20425;-76
2023/01/11 00:28:32;;;;;;;8.13;7.33;;;7.30;99.90;;;;;;6050568;23;20415;-76
2023/01/11 00:31:01;;;;;;;8.97;8.10;;;7.30;99.90;;;;;;6015086;23;20546;-76
2023/01/11 00:33:29;;;;;;;7.90;7.10;;;7.30;99.90;;;;;;6015045;23;20420;-76
2023/01/11 00:35:58;;;;;;;9.27;7.90;;;7.30;99.90;;;;;;6049712;23;20424;-75
2023/01/11 00:38:45;;;;;;;8.90;7.93;;;7.40;99.90;;;;;;6049760;23;20405;-76
2023/01/11 00:49:36;;;;;;;9.00;8.20;;;7.50;99.90;;;;;;6026345;23;20437;-75
2023/01/11 00:52:07;;;;;;;9.33;8.53;;;7.40;99.90;;;;;;6038434;23;20445;-75
2023/01/11 00:54:36;;;;;;;9.87;8.97;;;7.50;99.90;;;;;;6038757;23;20904;-75
2023/01/11 00:57:06;;;;;;;10.00;9.00;;;7.50;99.90;;;;;;6049638;23;20424;-74
2023/01/11 00:59:34;;;;;;;10.03;9.20;;;7.60;99.90;;;;;;6038729;23;20862;-75
2023/01/11 01:02:03;;;;;;;9.47;8.70;;;7.60;99.90;;;;;;6049547;23;20438;-76
2023/01/11 01:04:31;;;;;;;10.20;9.10;;;7.60;99.90;;;;;;6049935;23;20412;-75
2023/01/11 01:06:59;;;;;;;10.37;9.47;;;7.60;99.90;;;;;;6049412;23;20425;-75
2023/01/11 01:09:28;;;;;;;10.57;9.57;;;7.60;99.90;;;;;;6038405;23;20426;-75
2023/01/11 01:11:56;;;;;;;11.20;10.30;;;7.60;99.90;;;;;;6038362;23;20441;-75
2023/01/11 01:14:24;;;;;;;11.20;10.10;;;7.70;99.90;;;;;;6040220;23;20719;-75
2023/01/11 01:16:53;;;;;;;10.77;9.87;;;7.70;99.90;;;;;;6049342;23;20450;-75
2023/01/11 01:19:21;;;;;;;10.73;9.67;;;7.80;99.90;;;;;;6038467;23;20417;-75
2023/01/11 01:21:50;;;;;;;10.97;10.07;;;7.80;99.90;;;;;;6049300;23;20439;-75
2023/01/11 01:24:18;;;;;;;10.73;9.83;;;7.80;99.90;;;;;;6038293;23;20461;-75
2023/01/11 01:26:46;;;;;;;11.17;10.17;;;7.80;99.90;;;;;;6038184;23;20453;-75
2023/01/11 01:29:15;;;;;;;10.63;9.73;;;7.80;99.90;;;;;;6040158;23;20415;-75
2023/01/11 01:31:44;;;;;;;10.90;9.80;;;7.80;99.90;;;;;;6038089;23;20431;-75
2023/01/11 01:34:13;;;;;;;10.37;9.47;;;7.90;99.90;;;;;;6049365;23;20861;-75
2023/01/11 01:36:41;;;;;;;10.10;9.23;;;7.80;99.90;;;;;;6049302;23;20425;-75
2023/01/11 01:39:11;;;;;;;9.80;9.00;;;7.90;99.90;;;;;;6038283;23;20803;-75
2023/01/11 01:41:39;;;;;;;9.77;8.97;;;7.90;99.90;;;;;;6040023;23;20771;-76
2023/01/11 01:44:41;;;;;;;10.83;9.83;;;7.90;99.90;;;;;;6038147;23;20422;-76
2023/01/11 01:47:11;;;;;;;10.33;9.43;;;7.90;99.90;;;;;;6038049;23;20442;-76
2023/01/11 01:49:40;;;;;;;11.57;10.37;;;7.90;99.90;;;;;;6042253;23;20429;-76
2023/01/11 01:52:09;;;;;;;10.90;9.90;;;7.90;99.90;;;;;;6049190;23;20407;-76
2023/01/11 01:54:42;;;;;;;11.17;10.17;;;8.00;99.90;;;;;;6049217;23;20410;-76
2023/01/11 01:57:16;;;;;;;10.77;9.77;;;8.00;99.90;;;;;;6014421;23;20938;-76
2023/01/11 01:59:45;;;;;;;11.07;10.07;;;8.00;99.90;;;;;;6049569;23;20483;-76
2023/01/11 02:02:14;;;;;;;11.40;10.40;;;8.00;99.90;;;;;;6049077;23;20502;-76
2023/01/11 02:04:44;;;;;;;11.50;10.50;;;8.00;99.90;;;;;;6014488;23;20423;-76
2023/01/11 02:07:16;;;;;;;11.40;10.40;;;8.00;99.90;;;;;;6049062;23;20423;-76
2023/01/11 02:09:50;;;;;;;11.20;10.20;;;8.00;99.90;;;;;;6049150;23;20870;-76
2023/01/11 02:12:18;;;;;;;11.93;10.93;;;8.00;99.90;;;;;;6014585;23;20419;-76
2023/01/11 02:14:49;;;;;;;11.70;10.60;;;8.10;99.90;;;;;;6049124;23;20408;-76
2023/01/11 02:17:18;;;;;;;11.73;10.73;;;8.10;99.90;;;;;;6014432;23;20533;-76
2023/01/11 02:19:56;;;;;;;13.43;12.23;;;8.10;99.90;;;;;;6039995;23;20422;-76
2023/01/11 02:22:48;;;;;;;12.50;11.53;;;8.10;99.90;;;;;;6039909;23;20761;-76
2023/01/11 02:25:38;;;;;;;12.33;11.23;;;8.10;99.90;;;;;;6049512;23;20380;-76
2023/01/11 02:28:13;;;;;;;11.87;10.87;;;8.20;99.90;;;;;;6049096;23;20389;-76
2023/01/11 02:30:53;;;;;;;11.60;10.60;;;8.20;99.90;;;;;;6049532;23;20413;-76
2023/01/11 02:33:30;;;;;;;12.03;11.03;;;8.20;99.90;;;;;;6014479;23;20419;-76
2023/01/11 02:36:08;;;;;;;12.00;11.10;;;8.20;99.90;;;;;;6014648;23;20435;-76
2023/01/11 02:38:43;;;;;;;13.10;11.70;;;8.20;99.90;;;;;;6040180;23;20455;-76
2023/01/11 02:41:19;;;;;;;12.40;11.13;;;8.30;99.90;;;;;;6050357;23;20847;-76
2023/01/11 02:46:46;;;;;;;12.70;11.63;;;8.30;99.90;;;;;;6016124;23;20827;-76
2023/01/11 02:49:24;;;;;;;12.70;11.70;;;8.30;99.90;;;;;;6041619;23;20430;-76
2023/01/11 02:51:57;;;;;;;12.30;11.30;;;8.40;99.90;;;;;;6016222;23;20755;-76
2023/01/11 02:54:25;;;;;;;12.13;11.23;;;8.40;99.90;;;;;;6051211;23;20392;-76
2023/01/11 02:56:56;;;;;;;13.10;12.00;;;8.40;99.90;;;;;;6041563;23;20769;-76
2023/01/11 02:59:32;;;;;;;12.57;11.53;;;8.40;99.90;;;;;;6016021;23;20421;-76
2023/01/11 03:02:00;;;;;;;12.43;11.53;;;8.50;99.90;;;;;;6041085;23;20908;-75
2023/01/11 03:04:30;;;;;;;13.47;12.37;;;8.50;99.90;;;;;;6015872;23;20503;-76
2023/01/11 03:07:20;;;;;;;13.40;12.30;;;8.50;99.90;;;;;;6015771;23;20471;-76
2023/01/11 03:10:02;;;;;;;13.03;11.83;;;8.50;99.90;;;;;;6051029;23;20466;-76
2023/01/11 03:12:53;;;;;;;12.43;11.43;;;8.50;99.90;;;;;;6041033;23;20892;-76
2023/01/11 03:16:03;;;;;;;12.43;11.43;;;8.60;99.90;;;;;;6015828;23;20415;-76
2023/01/11 03:18:42;;;;;;;13.40;12.30;;;8.60;99.90;;;;;;5967057;23;20812;-76
2023/01/11 03:21:35;;;;;;;13.93;12.73;;;8.60;99.90;;;;;;6015798;23;20408;-76
2023/01/11 03:24:13;;;;;;;13.27;12.17;;;8.60;99.90;;;;;;6041208;23;20435;-76
2023/01/11 03:26:52;;;;;;;14.13;13.03;;;8.60;99.90;;;;;;6015747;23;20443;-76
2023/01/11 03:29:29;;;;;;;13.13;12.13;;;8.60;99.90;;;;;;6015920;23;20451;-76
2023/01/11 03:32:09;;;;;;;13.90;12.80;;;8.60;99.90;;;;;;6016397;23;20418;-76
2023/01/11 03:34:45;;;;;;;13.90;12.83;;;8.70;99.90;;;;;;6051178;23;20820;-76
2023/01/11 03:37:20;;;;;;;13.90;12.70;;;8.70;99.90;;;;;;6016036;23;20442;-76
2023/01/11 03:39:56;;;;;;;13.97;12.97;;;8.70;99.90;;;;;;6050944;23;20392;-75
2023/01/11 03:42:27;;;;;;;13.93;12.83;;;8.70;99.90;;;;;;6050365;23;20793;-76
2023/01/11 03:44:57;;;;;;;14.10;13.00;;;8.70;99.90;;;;;;6050697;23;20863;-76
2023/01/11 03:47:28;;;;;;;14.57;13.37;;;8.70;99.90;;;;;;6015613;23;20543;-75
2023/01/11 03:50:02;;;;;;;13.20;12.10;;;8.80;99.90;;;;;;6050149;23;20419;-77
2023/01/11 03:52:34;;;;;;;13.50;12.40;;;8.70;99.90;;;;;;6015552;23;20437;-76
2023/01/11 03:55:05;;;;;;;12.47;11.57;;;8.70;99.90;;;;;;6015466;23;20876;-76
2023/01/11 03:57:37;;;;;;;13.20;12.20;;;8.80;99.90;;;;;;6015552;23;20436;-77
2023/01/11 04:00:08;;;;;;;12.70;11.60;;;8.80;99.90;;;;;;6015604;23;20419;-76
2023/01/11 04:02:40;;;;;;;12.30;11.33;;;8.80;99.90;;;;;;6050554;23;20747;-76
2023/01/11 04:05:11;;;;;;;12.67;11.70;;;8.80;99.90;;;;;;6050205;23;20444;-77
2023/01/11 04:07:39;;;;;;;12.17;11.07;;;8.80;99.90;;;;;;6050188;23;20427;-76
2023/01/11 04:10:08;;;;;;;11.97;10.97;;;8.80;99.90;;;;;;6040513;23;20412;-76
2023/01/11 04:12:36;;;;;;;12.17;10.97;;;8.80;99.90;;;;;;6040856;23;20415;-76
2023/01/11 04:15:05;;;;;;;11.17;10.27;;;8.80;99.90;;;;;;6015301;23;20427;-76
2023/01/11 04:17:33;;;;;;;11.80;10.70;;;8.90;99.90;;;;;;6016155;23;20756;-76
2023/01/11 04:20:01;;;;;;;13.23;12.03;;;8.90;99.90;;;;;;6050286;23;20406;-76
2023/01/11 04:22:31;;;;;;;11.70;10.70;;;8.90;99.90;;;;;;6049883;23;20407;-76
2023/01/11 04:24:59;;;;;;;12.27;11.30;;;8.90;99.90;;;;;;6049782;23;20436;-76
2023/01/11 04:27:27;;;;;;;12.47;11.27;;;8.90;99.90;;;;;;6015160;23;20470;-76
2023/01/11 04:29:55;;;;;;;11.37;10.47;;;8.90;99.90;;;;;;6050122;23;20404;-76
2023/01/11 04:32:24;;;;;;;11.50;10.50;;;8.90;99.90;;;;;;6015198;23;20438;-76
2023/01/11 04:34:52;;;;;;;13.47;12.30;;;9.00;99.90;;;;;;6040257;23;20908;-76
2023/01/11 04:37:20;;;;;;;12.10;11.10;;;9.00;99.90;;;;;;6049862;23;20439;-76
2023/01/11 04:39:49;;;;;;;12.10;10.90;;;9.00;99.90;;;;;;6014972;23;20420;-76
2023/01/11 04:42:19;;;;;;;11.37;10.37;;;9.00;99.90;;;;;;6049720;23;20440;-76
2023/01/11 04:44:50;;;;;;;11.47;10.47;;;9.00;99.90;;;;;;6040468;23;20488;-76
2023/01/11 04:47:19;;;;;;;11.67;10.77;;;9.00;99.90;;;;;;6014937;23;20454;-76
2023/01/11 04:49:47;;;;;;;10.80;10.00;;;9.10;99.90;;;;;;6028568;23;20436;-76
2023/01/11 04:52:18;;;;;;;11.20;10.30;;;9.10;99.90;;;;;;6038550;23;20502;-76
2023/01/11 04:54:47;;;;;;;10.80;10.00;;;9.10;99.90;;;;;;6038894;23;20416;-76
2023/01/11 04:57:17;;;;;;;11.13;10.20;;;9.10;99.90;;;;;;6049630;23;20423;-76
2023/01/11 04:59:46;;;;;;;10.40;9.50;;;9.20;99.90;;;;;;6038538;23;20428;-76
2023/01/11 05:02:14;;;;;;;11.33;10.33;;;9.20;99.90;;;;;;6040345;23;20416;-76
2023/01/11 05:04:42;;;;;;;10.07;9.27;;;9.20;99.90;;;;;;6038810;23;20450;-76
2023/01/11 05:07:11;;;;;;;10.03;9.17;;;9.20;99.90;;;;;;6049245;23;20443;-76
2023/01/11 05:09:39;;;;;;;10.00;9.20;;;9.20;99.90;;;;;;6049601;23;20876;-76
2023/01/11 05:12:07;;;;;;;9.53;8.73;;;9.30;99.90;;;;;;6040222;23;20412;-77
2023/01/11 05:14:37;;;;;;;9.37;8.57;;;9.30;99.90;;;;;;6038436;23;20412;-76
2023/01/11 05:17:05;;;;;;;11.70;10.70;;;9.30;99.90;;;;;;6038355;23;20442;-75
2023/01/11 05:19:33;;;;;;;10.20;9.30;;;9.30;99.90;;;;;;6050055;23;20412;-75
2023/01/11 05:22:01;;;;;;;9.50;8.60;;;9.30;99.90;;;;;;6049658;23;20865;-75
2023/01/11 05:24:29;;;;;;;9.10;8.30;;;9.30;99.90;;;;;;6049626;23;20432;-75
2023/01/11 05:26:57;;;;;;;9.00;8.30;;;9.40;99.90;;;;;;6039689;23;20496;-75
2023/01/11 05:29:25;;;;;;;9.47;8.67;;;9.40;99.90;;;;;;6040060;23;20455;-75
2023/01/11 05:31:55;;;;;;;8.80;8.10;;;9.40;99.90;;;;;;6038251;23;20423;-76
2023/01/11 05:34:23;;;;;;;8.80;8.10;;;9.40;99.90;;;;;;6038370;23;20424;-75
2023/01/11 05:36:51;;;;;;;8.80;8.00;;;9.50;99.90;;;;;;6038130;23;20927;-76
2023/01/11 05:39:21;;;;;;;9.07;8.33;;;9.50;99.90;;;;;;6049228;23;20410;-75
2023/01/11 05:41:49;;;;;;;9.50;8.70;;;9.50;99.90;;;;;;6050006;23;20391;-76
2023/01/11 05:47:05;;;;;;;9.57;8.67;;;9.50;99.90;;;;;;6038101;23;20447;-76
2023/01/11 05:49:33;;;;;;;10.13;9.33;;;9.50;99.90;;;;;;6038253;23;20432;-76
2023/01/11 05:52:01;;;;;;;9.87;9.07;;;9.50;99.90;;;;;;6038096;23;20431;-76
2023/01/11 05:54:29;;;;;;;9.90;9.00;;;9.60;99.90;;;;;;6038092;23;20734;-75
2023/01/11 05:56:57;;;;;;;10.13;9.33;;;9.60;99.90;;;;;;6038154;23;20948;-76
2023/01/11 05:59:25;;;;;;;11.27;10.27;;;9.60;99.90;;;;;;6039606;23;20904;-76
2023/01/11 06:01:54;;;;;;;11.50;10.50;;;9.60;99.90;;;;;;6040016;23;20420;-77
2023/01/11 06:04:23;;;;;;;12.03;11.03;;;9.70;99.90;;;;;;6038090;23;20440;-76
2023/01/11 06:06:51;;;;;;;11.80;10.80;;;9.70;99.90;;;;;;6037997;23;20472;-76
2023/01/11 06:09:19;;;;;;;11.83;10.83;;;9.70;99.90;;;;;;6038134;23;20428;-76
2023/01/11 06:11:49;;;;;;;12.47;11.37;;;9.70;99.90;;;;;;6049192;23;20403;-76
2023/01/11 06:14:17;;;;;;;13.10;12.00;;;9.70;99.90;;;;;;6049136;23;20462;-76
2023/01/11 06:16:45;;;;;;;13.10;11.90;;;9.70;99.90;;;;;;6039752;23;20470;-76
2023/01/11 06:19:13;;;;;;;12.23;11.13;;;9.70;99.90;;;;;;6039100;23;20431;-76
2023/01/11 06:21:43;;;;;;;13.57;12.17;;;9.70;99.90;;;;;;6042399;23;20438;-76
2023/01/11 06:24:11;;;;;;;12.50;11.50;;;9.70;99.90;;;;;;6051139;23;20443;-76
2023/01/11 06:26:39;;;;;;;11.77;10.77;;;9.80;99.90;;;;;;6039725;23;20440;-77
2023/01/11 06:29:07;;;;;;;12.80;11.60;;;9.80;99.90;;;;;;6039810;23;20430;-76
2023/01/11 06:31:35;;;;;;;11.47;10.47;;;9.80;99.90;;;;;;6039777;23;20423;-76
2023/01/11 06:34:03;;;;;;;12.27;11.17;;;9.80;99.90;;;;;;6051226;23;20404;-77
2023/01/11 06:36:31;;;;;;;11.60;10.60;;;9.80;99.90;;;;;;6063831;23;20435;-76
2023/01/11 06:39:02;;;;;;;11.97;10.77;;;9.80;99.90;;;;;;6050899;23;20975;-76
2023/01/11 06:41:30;;;;;;;12.00;10.90;;;9.80;99.90;;;;;;6039853;23;20424;-76
2023/01/11 06:43:58;;;;;;;12.33;11.23;;;9.80;99.90;;;;;;6039681;23;20447;-76
2023/01/11 06:46:26;;;;;;;12.97;11.77;;;9.80;99.90;;;;;;6050799;23;20435;-76
2023/01/11 06:48:57;;;;;;;12.53;11.37;;;9.90;99.90;;;;;;6041285;23;20423;-76
2023/01/11 06:51:25;;;;;;;13.53;12.23;;;9.80;99.90;;;;;;6016110;23;20475;-76
2023/01/11 06:53:54;;;;;;;13.97;12.67;;;9.90;99.90;;;;;;6041481;23;20476;-76
2023/01/11 06:56:23;;;;;;;13.20;11.97;;;9.90;99.90;;;;;;6050580;23;20475;-76
2023/01/11 06:58:52;;;;;;;12.73;11.53;;;9.90;99.90;;;;;;6050804;23;20725;-76
2023/01/11 07:01:20;;;;;;;13.87;12.57;;;9.90;99.90;;;;;;6050677;23;20407;-76
2023/01/11 07:03:48;;;;;;;13.83;12.50;;;10.00;99.90;;;;;;6015978;23;20427;-76
2023/01/11 07:06:16;;;;;;;14.40;13.17;;;10.00;99.90;;;;;;6015980;23;20435;-76
2023/01/11 07:08:44;;;;;;;14.10;12.87;;;10.00;99.90;;;;;;6015851;23;20420;-76
2023/01/11 07:11:12;;;;;;;16.63;15.13;;;10.00;99.90;;;;;;6050550;23;20410;-76
2023/01/11 07:13:42;;;;;;;14.10;12.90;;;10.00;99.90;;;;;;6050844;23;20429;-76
2023/01/11 07:16:10;;;;;;;16.37;14.87;;;10.00;99.90;;;;;;6015591;23;20764;-76
2023/01/11 07:18:38;;;;;;;15.97;14.47;;;10.00;99.90;;;;;;6050478;23;20888;-76
2023/01/11 07:21:06;;;;;;;16.47;14.87;;;10.00;99.90;;;;;;6050470;23;20738;-77
2023/01/11 07:23:34;;;;;;;18.27;16.50;;;10.00;99.90;;;;;;6015725;23;20427;-76
2023/01/11 07:26:02;;;;;;;18.43;16.73;;;10.10;99.90;;;;;;6015456;23;20458;-76
2023/01/11 07:28:31;;;;;;;18.03;16.33;;;10.10;99.90;;;;;;6041204;23;20408;-77
2023/01/11 07:31:00;;;;;;;19.17;17.23;;;10.10;99.90;;;;;;6040734;23;20475;-76
2023/01/11 07:33:28;;;;;;;17.63;16.03;;;10.10;99.90;;;;;;6050447;23;20899;-76
2023/01/11 07:35:59;;;;;;;17.87;16.27;;;10.10;99.90;;;;;;6015480;23;20432;-76
2023/01/11 07:38:28;;;;;;;17.70;16.10;;;10.10;99.90;;;;;;6050323;23;20391;-77
2023/01/11 07:40:56;;;;;;;17.20;15.47;;;10.10;99.90;;;;;;6050338;23;20408;-76
2023/01/11 07:43:23;;;;;;;18.13;16.37;;;10.10;99.90;;;;;;6015472;23;20885;-76
2023/01/11 07:45:52;;;;;;;17.17;15.63;;;10.10;99.90;;;;;;6015370;23;20931;-76
2023/01/11 07:48:25;;;;;;;17.17;15.57;;;10.20;99.90;;;;;;6048276;23;20460;-77
2023/01/11 07:50:54;;;;;;;17.17;15.47;;;10.20;99.90;;;;;;6015640;23;20869;-76
2023/01/11 07:53:25;;;;;;;11.53;10.43;;;10.20;99.90;;;;;;6015621;23;20440;-76
2023/01/11 07:55:55;;;;;;;7.70;5.27;;;10.20;99.90;;;;;;6050225;23;20448;-76
2023/01/11 07:58:23;;;;;;;5.27;4.10;;;10.20;99.90;;;;;;6050932;23;20401;-76
2023/01/11 08:00:52;;;;;;;8.93;3.73;;;10.10;99.90;;;;;;6050169;23;20396;-77
2023/01/11 08:03:21;;;;;;;6.30;3.63;;;10.10;99.90;;;;;;6016839;23;20427;-76
2023/01/11 08:05:51;;;;;;;8.53;3.80;;;10.00;99.90;;;;;;6015173;23;20480;-76
2023/01/11 08:08:19;;;;;;;7.10;3.80;;;10.00;99.90;;;;;;6015490;23;20442;-76
2023/01/11 08:14:37;;;;;;;7.50;4.20;;;10.00;99.90;;;;;;6015324;23;20420;-76
2023/01/11 08:16:21;;;;;;;6.23;2.90;;;9.90;99.90;;;;;;6015029;23;20471;-76
2023/01/11 08:18:51;;;;;;;7.13;3.70;;;9.90;99.90;;;;;;6050033;23;20396;-76
2023/01/11 08:21:20;;;;;;;8.10;4.03;;;9.90;99.90;;;;;;6015210;23;20519;-76
2023/01/11 08:23:48;;;;;;;6.43;3.27;;;9.90;99.90;;;;;;6015259;23;20440;-77
2023/01/11 08:26:16;;;;;;;8.23;4.37;;;9.90;99.90;;;;;;6015315;23;20452;-76
2023/01/11 08:28:45;;;;;;;8.70;4.00;;;9.90;99.90;;;;;;6015201;23;20439;-77
2023/01/11 08:31:13;;;;;;;9.63;3.60;;;9.90;99.90;;;;;;6040291;23;20919;-76
2023/01/11 08:33:42;;;;;;;8.13;4.00;;;9.80;99.90;;;;;;6049951;23;20491;-76
2023/01/11 08:36:12;;;;;;;7.87;3.60;;;9.80;99.90;;;;;;6015043;23;20444;-75
2023/01/11 08:38:40;;;;;;;7.20;4.83;;;9.90;99.90;;;;;;6015277;23;20447;-77
2023/01/11 08:41:10;;;;;;;8.43;4.53;;;9.80;99.90;;;;;;6015027;23;20424;-75
2023/01/11 08:43:38;;;;;;;4.90;3.50;;;9.80;99.90;;;;;;6049461;23;20460;-76
2023/01/11 08:46:07;;;;;;;8.13;3.93;;;9.80;99.90;;;;;;6049800;23;20444;-76
2023/01/11 08:48:35;;;;;;;9.33;4.63;;;9.80;99.90;;;;;;6049812;23;20447;-76
2023/01/11 08:51:04;;;;;;;10.33;5.23;;;9.90;99.90;;;;;;6050103;23;20833;-77
2023/01/11 08:53:33;;;;;;;10.27;5.90;;;9.90;99.90;;;;;;6040616;23;20416;-76
2023/01/11 08:56:01;;;;;;;7.93;5.47;;;9.90;99.90;;;;;;6040409;23;20519;-76
2023/01/11 08:58:30;;;;;;;8.53;6.03;;;9.90;99.90;;;;;;6015020;23;20757;-76
2023/01/11 09:00:58;;;;;;;7.80;5.47;;;9.80;99.90;;;;;;6014852;23;20424;-76
2023/01/11 09:03:27;;;;;;;8.73;6.83;;;9.90;99.90;;;;;;6049897;23;20407;-76
2023/01/11 09:05:56;;;;;;;8.07;7.27;;;9.90;99.90;;;;;;6014707;23;20535;-77
2023/01/11 09:08:25;;;;;;;10.10;7.27;;;9.90;99.90;;;;;;6049498;23;20396;-76
2023/01/11 09:10:58;;;;;;;8.50;6.67;;;9.90;99.90;;;;;;6049816;23;20975;-76
2023/01/11 09:13:27;;;;;;;7.73;6.90;;;9.90;99.90;;;;;;6014892;23;20423;-76
2023/01/11 09:15:56;;;;;;;9.93;7.77;;;9.90;99.90;;;;;;6014687;23;20490;-76
2023/01/11 09:18:25;;;;;;;10.80;7.43;;;9.90;99.90;;;;;;6049469;23;20439;-76
2023/01/11 09:20:53;;;;;;;10.80;9.70;;;9.90;99.90;;;;;;6042723;23;20404;-77
2023/01/11 09:23:22;;;;;;;10.00;9.00;;;9.90;99.90;;;;;;6018384;23;20416;-77
2023/01/11 09:25:50;;;;;;;10.80;9.80;;;9.90;99.90;;;;;;6017698;23;20499;-77
2023/01/11 09:28:20;;;;;;;11.17;10.17;;;9.90;99.90;;;;;;6017908;23;20931;-77
2023/01/11 09:30:48;;;;;;;12.17;10.87;;;9.90;99.90;;;;;;6052509;23;20710;-76
2023/01/11 09:33:16;;;;;;;12.40;10.73;;;9.90;99.90;;;;;;6051625;23;20476;-77
2023/01/11 09:35:45;;;;;;;13.67;12.30;;;9.90;99.90;;;;;;6049637;23;20480;-77
2023/01/11 09:38:14;;;;;;;14.03;12.57;;;10.00;99.90;;;;;;6049861;23;20400;-76
2023/01/11 09:40:51;;;;;;;15.43;13.93;;;10.00;99.90;;;;;;6040163;23;20416;-76
2023/01/11 09:43:26;;;;;;;15.27;13.87;;;10.00;99.90;;;;;;6049730;23;20385;-76
2023/01/11 09:45:57;;;;;;;15.77;14.17;;;10.00;99.90;;;;;;6014791;23;20458;-77
2023/01/11 09:48:34;;;;;;;18.30;16.37;;;10.00;99.90;;;;;;6014560;23;20408;-76
2023/01/11 09:51:03;;;;;;;17.67;15.23;;;10.10;99.90;;;;;;6040278;23;20400;-77
2023/01/11 09:53:36;;;;;;;20.30;18.20;;;10.10;99.90;;;;;;6014496;23;20503;-76
2023/01/11 09:56:11;;;;;;;18.97;17.07;;;10.10;99.90;;;;;;6040095;23;20805;-76
2023/01/11 09:58:58;;;;;;;19.13;16.53;;;10.20;99.90;;;;;;6014660;23;20904;-76
2023/01/11 10:01:36;;;;;;;18.50;16.13;;;10.10;99.90;;;;;;6049354;23;20793;-76
2023/01/11 10:04:39;;;;;;;17.70;14.03;;;10.20;99.90;;;;;;6014553;23;20906;-76
2023/01/11 10:07:27;;;;;;;18.20;15.47;;;10.30;99.90;;;;;;6049465;23;20467;-77
2023/01/11 10:10:09;;;;;;;17.97;15.00;;;10.20;99.90;;;;;;6040079;23;20402;-77
2023/01/11 10:13:08;;;;;;;20.27;14.40;;;10.20;99.90;;;;;;6049617;23;20392;-77
2023/01/11 10:16:06;;;;;;;17.80;14.60;;;10.30;99.90;;;;;;6049174;23;20463;-77
2023/01/11 10:19:07;;;;;;;15.60;13.93;;;10.30;99.90;;;;;;6014573;23;20416;-76
2023/01/11 10:22:00;;;;;;;16.87;14.30;;;10.30;99.90;;;;;;6039932;23;20427;-77
2023/01/11 10:24:34;;;;;;;20.70;14.47;;;10.30;99.90;;;;;;6049631;23;20868;-77
2023/01/11 10:27:08;;;;;;;18.03;13.63;;;10.30;99.90;;;;;;6049490;23;20792;-77
2023/01/11 10:29:56;;;;;;;18.57;14.17;;;10.40;99.90;;;;;;6050811;23;20687;-77
2023/01/11 10:32:44;;;;;;;17.83;13.10;;;10.40;99.90;;;;;;6050298;23;20456;-77
2023/01/11 10:35:32;;;;;;;15.87;14.17;;;10.40;99.90;;;;;;6039709;23;20923;-77
2023/01/11 10:41:10;;;;;;;20.07;14.93;;;10.40;99.90;;;;;;6039987;23;20479;-77
2023/01/11 10:43:43;;;;;;;19.10;14.93;;;10.50;99.90;;;;;;6014501;23;20416;-77
2023/01/11 10:46:15;;;;;;;19.77;14.33;;;10.50;99.90;;;;;;6049139;23;20812;-77
2023/01/11 10:48:46;;;;;;;17.40;13.70;;;10.50;99.90;;;;;;6015470;23;20435;-76
2023/01/11 10:51:26;;;;;;;20.63;14.17;;;10.50;99.90;;;;;;6038326;23;20420;-76
2023/01/11 10:54:01;;;;;;;18.10;12.97;;;10.60;99.90;;;;;;6049353;23;20393;-76
2023/01/11 10:56:51;;;;;;;18.53;13.07;;;10.60;99.90;;;;;;6038213;23;20442;-76
2023/01/11 10:59:55;;;;;;;17.93;13.10;;;10.60;99.90;;;;;;6049369;23;20769;-76
2023/01/11 11:02:42;;;;;;;18.10;12.40;;;10.60;99.90;;;;;;6049554;23;20397;-76
2023/01/11 11:05:23;;;;;;;18.30;11.90;;;10.60;99.90;;;;;;6040225;23;20748;-76
2023/01/11 11:07:57;;;;;;;16.63;10.33;;;10.60;99.90;;;;;;6040895;23;20440;-76
2023/01/11 11:10:32;;;;;;;17.40;11.33;;;10.60;99.90;;;;;;6051666;23;20385;-77
2023/01/11 11:13:12;;;;;;;17.53;10.83;;;10.60;99.90;;;;;;6051881;23;20483;-76
2023/01/11 11:15:49;;;;;;;18.00;9.30;;;10.70;99.90;;;;;;6050713;23;20416;-75
2023/01/11 11:18:17;;;;;;;17.93;10.27;;;10.60;99.90;;;;;;6051699;23;20384;-75
2023/01/11 11:20:46;;;;;;;15.73;9.93;;;10.60;99.90;;;;;;6039673;23;20408;-76
2023/01/11 11:23:17;;;;;;;16.53;9.20;;;10.60;99.90;;;;;;6039655;23;20901;-76
2023/01/11 11:25:49;;;;;;;16.40;8.40;;;10.60;99.90;;;;;;6042417;23;20424;-76
2023/01/11 11:28:28;;;;;;;16.13;8.40;;;10.60;99.90;;;;;;6051312;23;20420;-75
2023/01/11 11:30:59;;;;;;;12.93;8.50;;;10.60;99.90;;;;;;6039485;23;20805;-75
2023/01/11 11:33:33;;;;;;;14.40;9.00;;;10.60;99.90;;;;;;6039603;23;20760;-76
2023/01/11 11:36:05;;;;;;;18.10;8.50;;;10.60;99.90;;;;;;6052004;23;20447;-77
2023/01/11 11:38:35;;;;;;;15.07;7.83;;;10.60;99.90;;;;;;6051467;23;20412;-75
2023/01/11 11:41:07;;;;;;;16.93;8.50;;;10.50;99.90;;;;;;6039465;23;20856;-74
2023/01/11 11:43:36;;;;;;;13.93;7.63;;;10.50;99.90;;;;;;6041104;23;20888;-76
2023/01/11 11:46:15;;;;;;;17.70;7.90;;;10.50;99.90;;;;;;6039164;23;20817;-76
2023/01/11 11:49:11;;;;;;;20.43;7.60;;;10.50;99.90;;;;;;6040012;23;20533;-75
2023/01/11 11:51:42;;;;;;;12.30;7.80;;;10.50;99.90;;;;;;6050586;23;20726;-76
2023/01/11 11:54:20;;;;;;;12.80;7.77;;;10.50;99.90;;;;;;6039763;23;20408;-77
2023/01/11 11:56:49;;;;;;;20.33;7.90;;;10.40;99.90;;;;;;6039248;23;20951;-76
2023/01/11 11:59:20;;;;;;;13.77;7.60;;;10.50;99.90;;;;;;6039622;23;20431;-75
2023/01/11 12:01:55;;;;;;;14.10;6.43;;;10.50;99.90;;;;;;6041276;23;20403;-76
2023/01/11 12:04:35;;;;;;;11.77;7.33;;;10.40;99.90;;;;;;6040863;23;20450;-76
2023/01/11 12:07:14;;;;;;;13.60;6.43;;;10.40;99.90;;;;;;6050500;23;20436;-75
2023/01/11 12:09:47;;;;;;;15.77;8.03;;;10.40;99.90;;;;;;6039177;23;20424;-74
2023/01/11 12:12:18;;;;;;;13.90;6.20;;;10.40;99.90;;;;;;6050220;23;20473;-76
2023/01/11 12:15:06;;;;;;;10.40;6.10;;;10.40;99.90;;;;;;6050084;23;20381;-76
2023/01/11 12:17:35;;;;;;;11.00;5.90;;;10.40;99.90;;;;;;6050019;23;20451;-75
2023/01/11 12:20:23;;;;;;;14.97;5.10;;;10.40;99.90;;;;;;6039058;23;20424;-77
2023/01/11 12:23:13;;;;;;;13.83;5.63;;;10.40;99.90;;;;;;6050672;23;20380;-75
2023/01/11 12:25:53;;;;;;;8.77;4.60;;;10.40;99.90;;;;;;6038920;23;20448;-75
2023/01/11 12:28:31;;;;;;;14.27;4.60;;;10.40;99.90;;;;;;6040727;23;20761;-75
2023/01/11 12:31:10;;;;;;;10.37;4.83;;;10.40;99.90;;;;;;6038972;23;20415;-76
2023/01/11 12:33:48;;;;;;;13.33;4.73;;;10.40;99.90;;;;;;6040280;23;20878;-75
2023/01/11 12:36:26;;;;;;;8.57;3.90;;;10.40;99.90;;;;;;6038764;23;20450;-75
2023/01/11 12:39:03;;;;;;;12.80;4.60;;;10.40;99.90;;;;;;6050306;23;20380;-75
2023/01/11 12:41:50;;;;;;;7.70;3.47;;;10.40;99.90;;;;;;6039482;23;20419;-74
2023/01/11 12:44:38;;;;;;;10.60;4.80;;;10.50;99.90;;;;;;6039692;23;20507;-76
2023/01/11 12:47:25;;;;;;;9.27;4.50;;;10.40;99.90;;;;;;6038701;23;20535;-74
2023/01/11 12:50:00;;;;;;;13.23;4.40;;;10.40;99.90;;;;;;6038529;23;20454;-75
2023/01/11 12:52:43;;;;;;;9.73;4.23;;;10.40;99.90;;;;;;6050140;23;20411;-76
2023/01/11 12:55:37;;;;;;;10.43;4.30;;;10.50;99.90;;;;;;6050057;23;20388;-76
2023/01/11 12:58:13;;;;;;;11.03;4.43;;;10.50;99.90;;;;;;6049921;23;20389;-76
2023/01/11 13:00:59;;;;;;;7.80;3.87;;;10.50;99.90;;;;;;6040080;23;20392;-75
2023/01/11 13:03:45;;;;;;;8.87;3.83;;;10.50;99.90;;;;;;6050257;23;20436;-76
2023/01/11 13:06:17;;;;;;;9.40;4.47;;;10.40;99.90;;;;;;6049723;23;20416;-75
2023/01/11 13:08:56;;;;;;;9.70;4.03;;;10.40;99.90;;;;;;6038405;23;20451;-75
2023/01/11 13:11:39;;;;;;;14.50;4.47;;;10.40;99.90;;;;;;6038630;23;20420;-76
2023/01/11 13:14:41;;;;;;;11.00;4.10;;;10.50;99.90;;;;;;6038585;23;20452;-76
2023/01/11 13:17:20;;;;;;;13.27;4.93;;;10.50;99.90;;;;;;6018053;23;20487;-76
2023/01/11 13:19:56;;;;;;;8.50;4.40;;;10.50;99.90;;;;;;6038400;23;20454;-76
2023/01/11 13:22:30;;;;;;;6.73;3.37;;;10.50;99.90;;;;;;6050168;23;20761;-76
2023/01/11 13:25:01;;;;;;;9.90;4.40;;;10.50;99.90;;;;;;6049951;23;20412;-76
2023/01/11 13:27:31;;;;;;;12.33;4.73;;;10.50;99.90;;;;;;6038172;23;20451;-76
2023/01/11 13:30:01;;;;;;;12.73;4.77;;;10.60;99.90;;;;;;6040328;23;20899;-76